Time;durP1;ratioP1;P1;durP2;ratioP2;P2;SDS_P1;SDS_P2;PMS_P1;PMS_P2;Temp;Humidity;BMP_temperature;BMP_pressure;BME280_temperature;BME280_humidity;BME280_pressure;Samples;Min_cycle;Max_cycle;Signal;HPM_P1;HPM_P2
2022/04/14 00:01:47;;;;;;;17.70;9.33;;;11.20;99.90;;;;;;5008118;28;20041;-85
2022/04/14 00:04:12;;;;;;;14.00;8.70;;;11.20;99.90;;;;;;5024612;28;20053;-85
2022/04/14 00:06:38;;;;;;;14.93;8.53;;;11.10;99.90;;;;;;4998885;28;20087;-85
2022/04/14 00:09:04;;;;;;;13.67;8.13;;;11.10;99.90;;;;;;5040490;28;20056;-85
2022/04/14 00:11:30;;;;;;;16.43;9.10;;;11.10;99.90;;;;;;4993373;28;20049;-85
2022/04/14 00:13:55;;;;;;;14.37;8.70;;;11.10;99.90;;;;;;5007112;28;20101;-85
2022/04/14 00:16:21;;;;;;;16.30;9.57;;;11.00;99.90;;;;;;5005149;28;20049;-86
2022/04/14 00:18:47;;;;;;;13.93;8.97;;;11.00;99.90;;;;;;5032428;28;20079;-85
2022/04/14 00:21:13;;;;;;;16.53;8.97;;;11.00;99.90;;;;;;5007957;28;20043;-85
2022/04/14 00:23:39;;;;;;;16.93;9.63;;;11.00;99.90;;;;;;5024196;28;20057;-85
2022/04/14 00:26:05;;;;;;;17.03;8.90;;;10.90;99.90;;;;;;5006922;28;20048;-85
2022/04/14 00:28:31;;;;;;;17.03;9.60;;;10.90;99.90;;;;;;5017688;28;20078;-85
2022/04/14 00:30:59;;;;;;;15.50;9.47;;;10.80;99.90;;;;;;5004273;28;20053;-85
2022/04/14 00:33:26;;;;;;;15.53;9.30;;;10.80;99.90;;;;;;5022227;28;20037;-85
2022/04/14 00:35:52;;;;;;;15.70;9.90;;;10.70;99.90;;;;;;5003451;28;20041;-86
2022/04/14 00:38:18;;;;;;;19.87;10.20;;;10.80;99.90;;;;;;5033639;28;20048;-85
2022/04/14 00:40:44;;;;;;;16.07;9.63;;;10.80;99.90;;;;;;5006807;28;20037;-85
2022/04/14 00:43:10;;;;;;;17.90;10.57;;;10.80;99.90;;;;;;5023202;28;20164;-84
2022/04/14 00:45:35;;;;;;;17.63;10.17;;;10.80;99.90;;;;;;5007521;28;20049;-85
2022/04/14 00:48:02;;;;;;;15.57;9.80;;;10.80;99.90;;;;;;5020202;28;20049;-85
2022/04/14 00:50:28;;;;;;;18.07;10.10;;;10.70;99.90;;;;;;5020650;28;20049;-85
2022/04/14 00:52:54;;;;;;;17.70;9.63;;;10.80;99.90;;;;;;5022332;28;20041;-85
2022/04/14 00:55:20;;;;;;;15.83;10.70;;;10.70;99.90;;;;;;5038718;28;20051;-85
2022/04/14 00:57:46;;;;;;;19.30;10.73;;;10.70;99.90;;;;;;5052438;28;20135;-85
2022/04/14 01:00:12;;;;;;;15.93;9.73;;;10.70;99.90;;;;;;5038738;28;20045;-85
2022/04/14 01:02:38;;;;;;;17.83;9.43;;;10.70;99.90;;;;;;5039812;28;20049;-85
2022/04/14 01:05:04;;;;;;;16.10;10.17;;;10.70;99.90;;;;;;5022499;28;20060;-85
2022/04/14 01:07:33;;;;;;;15.63;10.90;;;10.70;99.90;;;;;;5040234;28;20494;-85
2022/04/14 01:10:00;;;;;;;18.17;10.37;;;10.60;99.90;;;;;;5038825;28;20087;-85
2022/04/14 01:12:27;;;;;;;17.27;10.57;;;10.60;99.90;;;;;;5039572;28;20585;-85
2022/04/14 01:14:52;;;;;;;16.50;10.43;;;10.60;99.90;;;;;;5056088;28;20045;-85
2022/04/14 01:17:18;;;;;;;16.97;10.47;;;10.60;99.90;;;;;;5038995;28;20056;-85
2022/04/14 01:19:44;;;;;;;16.27;9.87;;;10.50;99.90;;;;;;5007266;28;20033;-85
2022/04/14 01:22:15;;;;;;;19.10;10.67;;;10.50;99.90;;;;;;5006666;28;20080;-85
2022/04/14 01:24:41;;;;;;;17.58;10.50;;;10.50;99.90;;;;;;5053186;28;20617;-85
2022/04/14 01:27:07;;;;;;;17.30;10.63;;;10.50;99.90;;;;;;5011954;28;20056;-84
2022/04/14 01:29:34;;;;;;;18.10;10.80;;;10.40;99.90;;;;;;5039979;28;20041;-85
2022/04/14 01:32:02;;;;;;;14.50;10.40;;;10.40;99.90;;;;;;5039044;28;20123;-85
2022/04/14 01:34:31;;;;;;;14.97;10.00;;;10.40;99.90;;;;;;5055306;28;20569;-85
2022/04/14 01:36:58;;;;;;;12.97;10.13;;;10.40;99.90;;;;;;5024147;28;20063;-84
2022/04/14 01:39:24;;;;;;;17.70;10.60;;;10.40;99.90;;;;;;5055066;28;20197;-85
2022/04/14 01:41:50;;;;;;;17.13;10.43;;;10.30;99.90;;;;;;5056260;28;20040;-85
2022/04/14 01:44:16;;;;;;;13.80;9.23;;;10.30;99.90;;;;;;5035526;28;20042;-85
2022/04/14 01:46:42;;;;;;;16.10;10.33;;;10.30;99.90;;;;;;5026316;28;20045;-85
2022/04/14 01:49:08;;;;;;;15.73;10.27;;;10.30;99.90;;;;;;5055856;28;20082;-84
2022/04/14 01:51:35;;;;;;;17.13;10.43;;;10.20;99.90;;;;;;5022584;28;20067;-85
2022/04/14 01:54:01;;;;;;;19.20;11.37;;;10.10;99.90;;;;;;5055740;28;20052;-85
2022/04/14 01:56:27;;;;;;;18.60;10.97;;;10.10;99.90;;;;;;5038090;28;20117;-84
2022/04/14 01:58:53;;;;;;;16.50;9.83;;;10.00;99.90;;;;;;5039028;28;20076;-85
2022/04/14 02:01:19;;;;;;;22.00;10.87;;;10.00;99.90;;;;;;5021631;28;20045;-84
2022/04/14 02:03:45;;;;;;;16.80;10.80;;;10.00;99.90;;;;;;5039002;28;20090;-86
2022/04/14 02:06:11;;;;;;;18.20;11.40;;;10.00;99.90;;;;;;5021370;28;20041;-85
2022/04/14 02:08:37;;;;;;;21.93;12.97;;;10.00;99.90;;;;;;5014310;28;20050;-85
2022/04/14 02:11:06;;;;;;;19.17;11.43;;;10.00;99.90;;;;;;5022384;28;20049;-86
2022/04/14 02:13:33;;;;;;;19.93;12.23;;;10.00;99.90;;;;;;5037879;28;20041;-85
2022/04/14 02:16:00;;;;;;;22.13;12.80;;;10.00;99.90;;;;;;5022656;28;20045;-85
2022/04/14 02:18:26;;;;;;;20.00;13.03;;;10.10;99.90;;;;;;5037723;28;20037;-85
2022/04/14 02:20:52;;;;;;;22.90;13.53;;;10.10;99.90;;;;;;5054908;28;20033;-85
2022/04/14 02:23:19;;;;;;;19.53;12.63;;;10.10;99.90;;;;;;5038142;28;20041;-85
2022/04/14 02:25:45;;;;;;;22.33;13.60;;;10.20;99.90;;;;;;5015314;28;20053;-85
2022/04/14 02:28:11;;;;;;;16.93;11.50;;;10.20;99.90;;;;;;5052271;28;20128;-84
2022/04/14 02:30:37;;;;;;;23.93;14.20;;;10.20;99.90;;;;;;5016993;28;20108;-86
2022/04/14 02:33:03;;;;;;;20.57;12.30;;;10.20;99.90;;;;;;5036509;28;20079;-84
2022/04/14 02:35:29;;;;;;;22.23;14.33;;;10.20;99.90;;;;;;5034794;28;20075;-85
2022/04/14 02:37:58;;;;;;;24.07;15.03;;;10.20;99.90;;;;;;5022393;28;20613;-85
2022/04/14 02:40:24;;;;;;;20.83;14.80;;;10.20;99.90;;;;;;5012069;28;20049;-85
2022/04/14 02:42:53;;;;;;;21.07;14.47;;;10.10;99.90;;;;;;5038386;28;20044;-85
2022/04/14 02:45:20;;;;;;;24.87;14.87;;;10.10;99.90;;;;;;5022812;28;20047;-85
2022/04/14 02:47:45;;;;;;;19.63;12.83;;;10.10;99.90;;;;;;5037854;28;20060;-85
2022/04/14 02:50:11;;;;;;;21.27;13.50;;;10.10;99.90;;;;;;5021941;28;20042;-85
2022/04/14 02:52:37;;;;;;;22.63;14.80;;;10.00;99.90;;;;;;5049848;28;20046;-84
2022/04/14 02:55:03;;;;;;;22.73;15.40;;;10.00;99.90;;;;;;5038597;28;20120;-84
2022/04/14 02:57:30;;;;;;;21.10;14.93;;;10.00;99.90;;;;;;5054909;28;20087;-85
2022/04/14 02:59:57;;;;;;;23.03;15.50;;;9.90;99.90;;;;;;5022278;28;20079;-85
2022/04/14 03:02:23;;;;;;;24.50;15.53;;;9.90;99.90;;;;;;5055574;28;20041;-85
2022/04/14 03:04:49;;;;;;;24.57;15.97;;;9.90;99.90;;;;;;5019970;28;20041;-85
2022/04/14 03:07:14;;;;;;;24.37;15.63;;;9.80;99.90;;;;;;5032082;28;20052;-85
2022/04/14 03:09:40;;;;;;;25.63;16.53;;;9.80;99.90;;;;;;5021417;28;20057;-84
2022/04/14 03:12:06;;;;;;;25.27;15.93;;;9.70;99.90;;;;;;5022079;28;20049;-85
2022/04/14 03:14:32;;;;;;;24.77;16.60;;;9.70;99.90;;;;;;5022021;28;20393;-85
2022/04/14 03:16:58;;;;;;;22.80;16.33;;;9.70;99.90;;;;;;5021568;28;20045;-85
2022/04/14 03:19:25;;;;;;;22.70;16.37;;;9.70;99.90;;;;;;5038257;28;20082;-84
2022/04/14 03:21:51;;;;;;;29.33;18.07;;;9.70;99.90;;;;;;5041311;28;20082;-84
2022/04/14 03:24:17;;;;;;;24.97;16.87;;;9.60;99.90;;;;;;5025939;28;20475;-85
2022/04/14 03:26:42;;;;;;;28.13;17.80;;;9.60;99.90;;;;;;5041444;28;20072;-84
2022/04/14 03:29:08;;;;;;;29.70;18.57;;;9.60;99.90;;;;;;5042334;28;20080;-85
2022/04/14 03:31:34;;;;;;;27.60;16.73;;;9.50;99.90;;;;;;5033152;28;20049;-85
2022/04/14 03:34:00;;;;;;;27.67;17.83;;;9.50;99.90;;;;;;5034226;28;20412;-85
2022/04/14 03:36:26;;;;;;;26.23;17.90;;;9.50;99.90;;;;;;5041529;28;20029;-84
2022/04/14 03:38:51;;;;;;;28.70;18.33;;;9.50;99.90;;;;;;5024753;28;20087;-85
2022/04/14 03:41:17;;;;;;;28.20;19.13;;;9.50;99.90;;;;;;5025683;28;20048;-85
2022/04/14 03:43:43;;;;;;;35.17;20.63;;;9.50;99.90;;;;;;5024151;28;20056;-84
2022/04/14 03:46:09;;;;;;;32.20;20.37;;;9.50;99.90;;;;;;5007350;28;20053;-84
2022/04/14 03:48:35;;;;;;;29.07;18.63;;;9.50;99.90;;;;;;5041355;28;20044;-84
2022/04/14 03:51:01;;;;;;;41.33;23.30;;;9.50;99.90;;;;;;5040904;28;20421;-84
2022/04/14 03:53:26;;;;;;;34.73;19.77;;;9.50;99.90;;;;;;5040991;28;20049;-84
2022/04/14 03:55:52;;;;;;;38.00;24.23;;;9.50;99.90;;;;;;5024601;28;20080;-85
2022/04/14 03:58:18;;;;;;;35.83;23.30;;;9.50;99.90;;;;;;5036221;28;20056;-84
2022/04/14 04:00:45;;;;;;;32.40;21.47;;;9.50;99.90;;;;;;5043148;28;20048;-85
2022/04/14 04:03:12;;;;;;;26.47;17.57;;;9.50;99.90;;;;;;5061144;28;20063;-84
2022/04/14 04:05:38;;;;;;;33.50;21.57;;;9.50;99.90;;;;;;5043262;28;20047;-85
2022/04/14 04:08:07;;;;;;;25.53;17.90;;;9.40;99.90;;;;;;5043869;28;20534;-84
2022/04/14 04:10:33;;;;;;;30.53;20.93;;;9.30;99.90;;;;;;5043810;28;20049;-84
2022/04/14 04:12:59;;;;;;;30.87;20.63;;;9.40;99.90;;;;;;5011090;28;20051;-85
2022/04/14 04:15:25;;;;;;;33.07;20.27;;;9.30;99.90;;;;;;5060972;28;20041;-85
2022/04/14 04:17:53;;;;;;;30.70;21.20;;;9.30;99.90;;;;;;5010164;28;20387;-84
2022/04/14 04:20:22;;;;;;;30.67;20.70;;;9.20;99.90;;;;;;5012125;28;20085;-85
2022/04/14 04:22:48;;;;;;;28.30;19.30;;;9.10;99.90;;;;;;5043331;28;20048;-84
2022/04/14 04:25:14;;;;;;;29.03;19.13;;;9.10;99.90;;;;;;5011027;28;20045;-84
2022/04/14 04:27:40;;;;;;;32.33;20.67;;;9.00;99.90;;;;;;5043236;28;20036;-85
2022/04/14 04:30:07;;;;;;;29.20;19.17;;;9.00;99.90;;;;;;5026459;28;20047;-84
2022/04/14 04:32:33;;;;;;;28.83;19.47;;;8.90;99.90;;;;;;5060522;28;20108;-84
2022/04/14 04:35:04;;;;;;;26.20;17.90;;;8.80;99.90;;;;;;5058960;28;20052;-85
2022/04/14 04:37:30;;;;;;;17.73;13.77;;;8.80;99.90;;;;;;5044327;28;20564;-85
2022/04/14 04:39:56;;;;;;;24.10;16.30;;;8.70;99.90;;;;;;5043381;28;20052;-84
2022/04/14 04:42:21;;;;;;;28.63;19.67;;;8.70;99.90;;;;;;5026732;28;20048;-85
2022/04/14 04:44:47;;;;;;;29.50;20.20;;;8.70;99.90;;;;;;5059532;28;20040;-84
2022/04/14 04:47:13;;;;;;;26.93;19.57;;;8.60;99.90;;;;;;5023957;28;20052;-85
2022/04/14 04:49:39;;;;;;;25.33;18.43;;;8.60;99.90;;;;;;5023995;28;20102;-85
2022/04/14 04:52:05;;;;;;;27.77;18.03;;;8.60;99.90;;;;;;5043040;28;20048;-85
2022/04/14 04:54:31;;;;;;;31.57;19.90;;;8.50;99.90;;;;;;5060705;28;20044;-85
2022/04/14 04:56:57;;;;;;;30.60;19.53;;;8.50;99.90;;;;;;5043171;28;20066;-84
2022/04/14 04:59:22;;;;;;;33.80;20.77;;;8.50;99.90;;;;;;5011267;28;20051;-85
2022/04/14 05:01:48;;;;;;;34.57;21.03;;;8.50;99.90;;;;;;5043878;28;20067;-85
2022/04/14 05:04:14;;;;;;;34.80;22.30;;;8.50;99.90;;;;;;5019915;28;20440;-82
2022/04/14 05:06:40;;;;;;;31.17;20.87;;;8.50;99.90;;;;;;5027617;28;20070;-84
2022/04/14 05:09:06;;;;;;;34.90;23.43;;;8.50;99.90;;;;;;5023275;28;20052;-84
2022/04/14 05:11:33;;;;;;;32.93;22.37;;;8.50;99.90;;;;;;5078379;28;20064;-84
2022/04/14 05:13:59;;;;;;;31.63;20.83;;;8.50;99.90;;;;;;5024348;28;20044;-86
2022/04/14 05:16:24;;;;;;;34.47;22.43;;;8.50;99.90;;;;;;5017687;28;20043;-85
2022/04/14 05:18:50;;;;;;;34.50;23.27;;;8.50;99.90;;;;;;5025755;28;20071;-85
2022/04/14 05:21:16;;;;;;;38.20;23.20;;;8.50;99.90;;;;;;5011968;28;20653;-85
2022/04/14 05:23:42;;;;;;;35.97;23.53;;;8.50;99.90;;;;;;5022233;28;20495;-84
2022/04/14 05:26:08;;;;;;;35.00;22.33;;;8.50;99.90;;;;;;5024978;28;20918;-85
2022/04/14 05:28:34;;;;;;;31.67;22.07;;;8.50;99.90;;;;;;5039683;28;20036;-85
2022/04/14 05:31:00;;;;;;;27.23;18.47;;;8.50;99.90;;;;;;5024853;28;20047;-84
2022/04/14 05:33:27;;;;;;;29.77;20.60;;;8.50;99.90;;;;;;5041281;28;20044;-85
2022/04/14 05:35:53;;;;;;;30.80;21.57;;;8.40;99.90;;;;;;5024805;28;20041;-89
2022/04/14 05:38:18;;;;;;;29.27;21.13;;;8.50;99.90;;;;;;5050685;28;20055;-90
2022/04/14 05:40:45;;;;;;;32.17;21.30;;;8.50;99.90;;;;;;5021944;28;20045;-87
2022/04/14 05:43:23;;;;;;;30.07;20.70;;;8.50;99.90;;;;;;5018205;28;20071;-87
2022/04/14 05:45:49;;;;;;;46.70;27.60;;;8.60;99.90;;;;;;5043066;28;20037;-89
2022/04/14 05:48:16;;;;;;;42.80;26.53;;;8.60;99.90;;;;;;5006054;28;20052;-92
2022/04/14 05:50:43;;;;;;;40.20;26.20;;;8.70;99.90;;;;;;5022153;28;20051;-92
2022/04/14 05:53:10;;;;;;;44.73;25.17;;;8.80;99.90;;;;;;5038898;28;20044;-92
2022/04/14 05:55:36;;;;;;;45.47;27.73;;;8.90;99.90;;;;;;5033235;28;20117;-89
2022/04/14 05:58:05;;;;;;;45.60;28.50;;;9.00;99.90;;;;;;5033255;28;20084;-91
2022/04/14 06:00:32;;;;;;;45.33;28.50;;;9.10;99.90;;;;;;5055141;28;20040;-83
2022/04/14 06:02:59;;;;;;;51.93;32.33;;;9.20;99.90;;;;;;5044798;28;20068;-87
2022/04/14 06:05:29;;;;;;;54.17;33.23;;;9.30;99.90;;;;;;5049328;28;20058;-92
2022/04/14 06:07:56;;;;;;;54.07;31.73;;;9.50;99.90;;;;;;5031062;28;20057;-85
2022/04/14 06:10:23;;;;;;;51.63;32.20;;;9.50;99.90;;;;;;5037744;28;20040;-84
2022/04/14 06:12:49;;;;;;;59.20;33.57;;;9.70;99.90;;;;;;5034272;28;20045;-86
2022/04/14 06:15:19;;;;;;;58.13;33.73;;;9.80;99.90;;;;;;5004590;28;20044;-84
2022/04/14 06:17:45;;;;;;;60.00;35.93;;;9.80;99.90;;;;;;5039895;28;20119;-84
2022/04/14 06:20:12;;;;;;;56.53;33.40;;;10.00;99.90;;;;;;5057996;28;20050;-84
2022/04/14 06:22:39;;;;;;;58.43;35.13;;;10.10;99.90;;;;;;5040502;28;20045;-84
2022/04/14 06:25:13;;;;;;;58.83;35.20;;;10.20;99.90;;;;;;5074721;28;20066;-84
2022/04/14 06:27:46;;;;;;;59.63;35.77;;;10.30;99.90;;;;;;5034638;28;20065;-84
2022/04/14 06:30:14;;;;;;;59.27;33.50;;;10.40;99.90;;;;;;5040721;28;20028;-84
2022/04/14 06:32:40;;;;;;;51.73;32.73;;;10.50;99.90;;;;;;5025161;28;20040;-84
2022/04/14 06:35:08;;;;;;;54.53;32.50;;;10.60;99.90;;;;;;5023712;28;21148;-83
2022/04/14 06:37:34;;;;;;;51.83;32.47;;;10.70;99.90;;;;;;5024659;28;20046;-84
2022/04/14 06:40:01;;;;;;;57.00;32.37;;;10.70;99.90;;;;;;5038045;28;20069;-84
2022/04/14 06:42:26;;;;;;;56.73;31.67;;;10.80;99.90;;;;;;5040866;28;20115;-84
2022/04/14 06:44:58;;;;;;;50.93;31.97;;;10.90;99.90;;;;;;5041488;28;20060;-84
2022/04/14 06:47:24;;;;;;;49.95;30.10;;;11.00;99.90;;;;;;5041495;28;20037;-83
2022/04/14 06:49:49;;;;;;;53.17;31.07;;;11.10;99.90;;;;;;5009438;28;20112;-84
2022/04/14 06:52:17;;;;;;;49.00;31.20;;;11.20;99.90;;;;;;5023130;28;20052;-84
2022/04/14 06:54:43;;;;;;;52.17;29.80;;;11.20;99.90;;;;;;5022962;28;20041;-84
2022/04/14 06:57:09;;;;;;;47.13;28.40;;;11.30;99.90;;;;;;5061024;28;20049;-84
2022/04/14 06:59:35;;;;;;;48.80;29.73;;;11.40;99.90;;;;;;5028968;28;20051;-84
2022/04/14 07:02:01;;;;;;;50.60;29.13;;;11.50;99.90;;;;;;5028280;28;20040;-84
2022/04/14 07:04:27;;;;;;;46.30;29.00;;;11.50;99.90;;;;;;5027656;28;20032;-84
2022/04/14 07:06:54;;;;;;;54.00;29.83;;;11.60;99.90;;;;;;5029143;28;20945;-84
2022/04/14 07:09:20;;;;;;;43.30;25.03;;;11.70;99.90;;;;;;5044073;28;20051;-84
2022/04/14 07:11:46;;;;;;;45.37;26.83;;;11.80;99.90;;;;;;5041150;28;20061;-86
2022/04/14 07:14:14;;;;;;;46.07;28.07;;;11.90;99.90;;;;;;5027846;28;20461;-86
2022/04/14 07:16:41;;;;;;;50.43;26.97;;;12.10;99.90;;;;;;5027707;28;20070;-87
2022/04/14 07:19:07;;;;;;;37.17;22.67;;;12.20;99.90;;;;;;5011616;28;20079;-87
2022/04/14 07:21:32;;;;;;;43.80;26.10;;;12.30;99.90;;;;;;5027794;28;20080;-87
2022/04/14 07:23:58;;;;;;;39.33;23.40;;;12.40;99.90;;;;;;5026112;28;20075;-87
2022/04/14 07:26:24;;;;;;;38.83;24.20;;;12.50;99.90;;;;;;5010972;28;20216;-86
2022/04/14 07:28:49;;;;;;;39.83;23.27;;;12.60;99.90;;;;;;5018701;28;20056;-87
2022/04/14 07:31:15;;;;;;;36.23;23.07;;;12.70;99.90;;;;;;5026555;28;20076;-86
2022/04/14 07:33:41;;;;;;;37.43;22.33;;;12.80;99.90;;;;;;5027746;28;20048;-86
2022/04/14 07:36:07;;;;;;;35.53;21.53;;;12.90;99.90;;;;;;5040498;28;20053;-87
2022/04/14 07:38:33;;;;;;;29.10;18.23;;;13.00;99.90;;;;;;5043847;28;20067;-87
2022/04/14 07:41:00;;;;;;;29.60;16.60;;;13.10;99.90;;;;;;5027600;28;20063;-87
2022/04/14 07:43:26;;;;;;;28.50;16.60;;;13.20;99.90;;;;;;5027121;28;20076;-86
2022/04/14 07:45:52;;;;;;;22.40;14.77;;;13.30;99.90;;;;;;5028104;28;20105;-86
2022/04/14 07:48:21;;;;;;;27.47;18.33;;;13.50;99.90;;;;;;5020867;28;20080;-87
2022/04/14 07:50:48;;;;;;;27.73;16.97;;;13.60;99.90;;;;;;5028329;28;20041;-87
2022/04/14 07:53:14;;;;;;;23.30;15.77;;;13.70;99.90;;;;;;5010981;28;20135;-87
2022/04/14 07:55:40;;;;;;;25.07;16.03;;;13.90;99.90;;;;;;5010745;28;20630;-86
2022/04/14 07:58:10;;;;;;;23.10;15.57;;;14.00;99.90;;;;;;5027236;28;20125;-87
2022/04/14 08:00:37;;;;;;;25.50;16.60;;;14.10;99.90;;;;;;5060011;28;20155;-87
2022/04/14 08:03:04;;;;;;;25.27;16.33;;;14.30;99.90;;;;;;5058741;28;20047;-87
2022/04/14 08:05:35;;;;;;;21.90;13.93;;;14.40;99.90;;;;;;5041368;28;20045;-88
2022/04/14 08:08:12;;;;;;;22.03;13.87;;;14.50;99.90;;;;;;5043486;28;20115;-87
2022/04/14 08:10:39;;;;;;;21.33;14.37;;;14.50;99.90;;;;;;5043692;28;20095;-87
2022/04/14 08:13:04;;;;;;;19.87;13.60;;;14.60;99.90;;;;;;5042768;28;20043;-87
2022/04/14 08:15:31;;;;;;;20.23;13.67;;;14.70;99.90;;;;;;5027532;28;20080;-87
2022/04/14 08:17:57;;;;;;;18.03;13.17;;;14.80;99.90;;;;;;5036269;28;20048;-87
2022/04/14 08:20:23;;;;;;;18.45;13.90;;;14.90;99.90;;;;;;5026227;28;20045;-87
2022/04/14 08:22:50;;;;;;;16.47;13.13;;;15.10;99.90;;;;;;5026832;28;20037;-88
2022/04/14 08:25:21;;;;;;;17.55;13.18;;;15.10;99.90;;;;;;5041637;28;20145;-87
2022/04/14 08:27:48;;;;;;;20.03;14.60;;;15.20;99.90;;;;;;5043386;28;20037;-87
2022/04/14 08:30:15;;;;;;;21.17;14.68;;;15.20;99.90;;;;;;5042549;28;20487;-87
2022/04/14 08:32:42;;;;;;;19.70;12.60;;;15.20;99.90;;;;;;5011210;28;20049;-88
2022/04/14 08:35:08;;;;;;;19.58;13.20;;;15.30;99.90;;;;;;5038874;28;20045;-88
2022/04/14 08:37:34;;;;;;;19.88;13.43;;;15.30;99.90;;;;;;5026967;28;20643;-88
2022/04/14 08:39:59;;;;;;;20.92;13.63;;;15.50;99.90;;;;;;5042712;28;20047;-88
2022/04/14 08:42:31;;;;;;;17.88;11.75;;;15.60;99.90;;;;;;5026148;28;20037;-87
2022/04/14 08:45:03;;;;;;;18.92;13.45;;;15.60;99.90;;;;;;5043396;28;20040;-87
2022/04/14 08:47:29;;;;;;;19.98;14.13;;;15.70;99.90;;;;;;5042898;28;20399;-87
2022/04/14 08:50:00;;;;;;;21.42;13.40;;;15.80;99.90;;;;;;5027109;28;20407;-87
2022/04/14 08:52:27;;;;;;;17.08;12.00;;;15.80;99.90;;;;;;5025568;28;20041;-87
2022/04/14 08:54:55;;;;;;;22.48;14.32;;;15.90;99.90;;;;;;5025759;28;20044;-88
2022/04/14 08:57:21;;;;;;;19.58;13.65;;;16.00;99.90;;;;;;5042060;28;20155;-87
2022/04/14 08:59:49;;;;;;;18.95;14.60;;;16.10;99.90;;;;;;5010068;28;20040;-88
2022/04/14 09:02:19;;;;;;;20.95;14.27;;;16.20;99.90;;;;;;5043190;28;20044;-87
2022/04/14 09:04:45;;;;;;;17.33;13.07;;;16.20;99.90;;;;;;5041528;28;20116;-87
2022/04/14 09:07:11;;;;;;;19.20;12.80;;;16.20;99.90;;;;;;5023257;28;20526;-87
2022/04/14 09:09:38;;;;;;;20.85;14.13;;;16.30;99.90;;;;;;5039394;28;20066;-88
2022/04/14 09:12:06;;;;;;;22.13;15.27;;;16.30;99.90;;;;;;5042176;28;20044;-87
2022/04/14 09:14:34;;;;;;;21.52;14.73;;;16.40;99.90;;;;;;5040912;28;20040;-88
2022/04/14 09:17:09;;;;;;;22.08;13.88;;;16.50;99.90;;;;;;5042071;28;20462;-86
2022/04/14 09:19:37;;;;;;;21.23;13.80;;;16.70;99.90;;;;;;5025697;28;20053;-87
2022/04/14 09:22:13;;;;;;;19.70;13.77;;;16.90;99.90;;;;;;5041597;28;20174;-87
2022/04/14 09:24:42;;;;;;;18.65;13.73;;;17.10;99.90;;;;;;5042584;28;20044;-87
2022/04/14 09:27:09;;;;;;;21.08;13.93;;;17.20;99.90;;;;;;5058054;28;20506;-87
2022/04/14 09:29:45;;;;;;;21.08;13.43;;;17.30;99.90;;;;;;5008800;28;20139;-87
2022/04/14 09:32:11;;;;;;;18.33;12.70;;;17.30;99.90;;;;;;5041612;28;20052;-87
2022/04/14 09:34:51;;;;;;;18.10;13.15;;;17.30;99.90;;;;;;5024338;28;20048;-88
2022/04/14 09:37:18;;;;;;;18.95;13.23;;;17.40;99.90;;;;;;5058589;28;20052;-87
2022/04/14 09:40:05;;;;;;;18.70;13.15;;;17.30;99.90;;;;;;5024660;28;20055;-88
2022/04/14 09:42:36;;;;;;;19.20;13.55;;;17.20;99.90;;;;;;5057700;28;20951;-88
2022/04/14 09:45:22;;;;;;;22.80;14.85;;;17.10;99.90;;;;;;5025374;28;20044;-88
2022/04/14 09:47:48;;;;;;;19.67;13.60;;;16.80;99.90;;;;;;5040959;28;20052;-88
2022/04/14 09:50:35;;;;;;;21.60;12.57;;;16.70;99.90;;;;;;5058566;28;20530;-87
2022/04/14 09:53:15;;;;;;;17.77;12.80;;;16.90;99.90;;;;;;5041459;28;20060;-88
2022/04/14 09:55:53;;;;;;;18.38;13.00;;;17.20;99.90;;;;;;5024818;28;20045;-88
2022/04/14 09:58:21;;;;;;;18.40;13.13;;;17.40;99.90;;;;;;5027059;28;20061;-88
2022/04/14 10:00:49;;;;;;;14.85;11.50;;;17.40;99.90;;;;;;5040777;28;20133;-88
2022/04/14 10:03:26;;;;;;;17.20;12.18;;;17.60;99.90;;;;;;5041593;28;20048;-88
2022/04/14 10:05:54;;;;;;;17.42;12.65;;;17.80;99.90;;;;;;5041578;28;20506;-87
2022/04/14 10:08:23;;;;;;;15.30;11.93;;;17.90;99.90;;;;;;5041516;28;20047;-88
2022/04/14 10:10:50;;;;;;;14.13;10.50;;;17.90;99.90;;;;;;5059230;28;20052;-88
2022/04/14 10:13:19;;;;;;;12.25;9.13;;;17.90;99.90;;;;;;5025227;28;20048;-88
2022/04/14 10:15:48;;;;;;;16.25;11.10;;;18.00;99.90;;;;;;5041477;28;20048;-89
2022/04/14 10:18:18;;;;;;;13.63;10.65;;;17.90;99.90;;;;;;5041221;28;20151;-88
2022/04/14 10:20:45;;;;;;;13.43;10.60;;;17.70;99.90;;;;;;5021935;28;20104;-88
2022/04/14 10:23:15;;;;;;;13.73;10.30;;;17.60;99.90;;;;;;5053671;28;20055;-87
2022/04/14 10:25:42;;;;;;;15.55;9.68;;;17.60;99.90;;;;;;5008909;28;20053;-87
2022/04/14 10:28:14;;;;;;;13.15;8.82;;;17.90;99.90;;;;;;5045955;28;20040;-88
2022/04/14 10:30:55;;;;;;;10.80;8.40;;;18.00;99.90;;;;;;5044892;28;20100;-88
2022/04/14 10:33:22;;;;;;;19.93;10.90;;;18.30;99.90;;;;;;5046187;28;20068;-88
2022/04/14 10:35:48;;;;;;;15.43;10.40;;;18.40;99.90;;;;;;5044637;28;20052;-88
2022/04/14 10:38:22;;;;;;;14.85;10.40;;;18.30;99.90;;;;;;5061959;28;20057;-88
2022/04/14 10:40:53;;;;;;;11.73;9.40;;;18.10;99.90;;;;;;5045145;28;20055;-88
2022/04/14 10:43:22;;;;;;;13.18;9.07;;;17.70;99.90;;;;;;5060374;28;20135;-88
2022/04/14 10:45:51;;;;;;;12.35;8.23;;;17.50;99.90;;;;;;5045647;28;20051;-88
2022/04/14 10:48:34;;;;;;;10.85;7.72;;;17.60;99.90;;;;;;5055782;28;20079;-88
2022/04/14 10:51:22;;;;;;;9.93;7.28;;;17.60;99.90;;;;;;5024070;28;20047;-88
2022/04/14 10:54:00;;;;;;;9.40;6.40;;;17.70;99.90;;;;;;5063924;28;20044;-89
2022/04/14 10:56:37;;;;;;;7.80;5.97;;;17.80;99.90;;;;;;5040511;28;20053;-86
2022/04/14 10:59:13;;;;;;;12.10;6.30;;;18.00;99.90;;;;;;5036582;28;20056;-86
2022/04/14 11:01:50;;;;;;;8.30;5.30;;;17.90;99.90;;;;;;5060740;28;20044;-86
2022/04/14 11:04:34;;;;;;;7.45;5.47;;;17.80;99.00;;;;;;5059410;28;20080;-85
2022/04/14 11:07:15;;;;;;;11.10;6.68;;;17.90;99.90;;;;;;5061855;28;20059;-84
2022/04/14 11:09:50;;;;;;;9.80;6.15;;;18.00;99.60;;;;;;5043925;28;20060;-83
2022/04/14 11:12:22;;;;;;;9.27;6.22;;;18.20;99.90;;;;;;5040083;28;20052;-83
2022/04/14 11:14:58;;;;;;;6.93;5.93;;;18.40;99.90;;;;;;5039828;28;20056;-82
2022/04/14 11:20:16;;;;;;;8.32;4.90;;;18.30;93.60;;;;;;5058235;28;20059;-83
2022/04/14 11:23:13;;;;;;;5.13;4.30;;;18.20;94.90;;;;;;5044834;28;20510;-83
2022/04/14 11:25:39;;;;;;;5.82;3.75;;;18.40;92.00;;;;;;5044559;28;20079;-83
2022/04/14 11:28:26;;;;;;;7.85;3.80;;;18.70;98.40;;;;;;5045612;28;20067;-83
2022/04/14 11:31:18;;;;;;;4.88;3.13;;;19.00;92.80;;;;;;5060384;28;20048;-83
2022/04/14 11:33:45;;;;;;;5.97;4.05;;;19.10;86.10;;;;;;5044766;28;20044;-82
2022/04/14 11:36:22;;;;;;;7.45;3.95;;;18.80;92.70;;;;;;5078192;28;20045;-83
2022/04/14 11:39:02;;;;;;;3.90;3.45;;;18.50;88.10;;;;;;5023481;28;20037;-83
2022/04/14 11:41:46;;;;;;;5.47;3.15;;;18.10;95.30;;;;;;5063464;28;20414;-83
2022/04/14 11:44:17;;;;;;;5.85;2.90;;;17.70;96.80;;;;;;5064316;28;20100;-82
2022/04/14 11:46:44;;;;;;;4.20;2.53;;;17.60;94.10;;;;;;5043443;28;20137;-82
2022/04/14 11:49:12;;;;;;;6.50;2.97;;;17.50;97.60;;;;;;5044749;28;20080;-83
2022/04/14 11:51:47;;;;;;;5.35;3.60;;;17.50;96.60;;;;;;5027374;28;20040;-82
2022/04/14 11:54:18;;;;;;;4.13;2.97;;;17.50;97.10;;;;;;5062033;28;20040;-83
2022/04/14 11:56:50;;;;;;;4.65;3.10;;;17.40;99.90;;;;;;5024182;28;20053;-83
2022/04/14 11:59:35;;;;;;;;;;;17.50;98.10;;;;;;5038692;28;20048;-81
2022/04/14 12:02:14;;;;;;;6.20;3.95;;;17.70;98.90;;;;;;5045034;28;19963;-81
2022/04/14 12:04:43;;;;;;;6.43;3.88;;;18.20;95.60;;;;;;5048128;28;20044;-80
2022/04/14 12:07:09;;;;;;;5.28;3.08;;;18.50;91.60;;;;;;5060806;28;20055;-81
2022/04/14 12:09:37;;;;;;;3.63;3.00;;;18.60;91.90;;;;;;5021712;28;20391;-81
2022/04/14 12:12:17;;;;;;;6.15;2.88;;;18.40;88.70;;;;;;5044084;28;20079;-81
2022/04/14 12:14:45;;;;;;;3.10;2.10;;;18.40;89.10;;;;;;5044396;28;20078;-81
2022/04/14 12:17:12;;;;;;;4.72;1.70;;;18.30;90.60;;;;;;5078254;28;20128;-80
2022/04/14 12:19:45;;;;;;;3.15;1.90;;;18.40;89.80;;;;;;5026579;28;20116;-81
2022/04/14 12:22:12;;;;;;;2.67;1.70;;;18.50;84.10;;;;;;5059867;28;20040;-81
2022/04/14 12:24:39;;;;;;;3.03;1.90;;;18.50;81.70;;;;;;5027780;28;20052;-81
2022/04/14 12:27:06;;;;;;;1.67;1.52;;;18.40;83.10;;;;;;5060310;28;20104;-81
2022/04/14 12:29:32;;;;;;;3.10;2.03;;;18.40;83.80;;;;;;5025699;28;20047;-82
2022/04/14 12:32:09;;;;;;;3.58;1.80;;;18.70;88.30;;;;;;5060580;28;20123;-81
2022/04/14 12:34:35;;;;;;;3.22;1.77;;;18.90;78.40;;;;;;5053276;28;20102;-82
2022/04/14 12:37:08;;;;;;;3.60;1.92;;;19.20;83.20;;;;;;5041976;28;20048;-82
2022/04/14 12:39:34;;;;;;;2.35;2.10;;;19.50;80.90;;;;;;5061541;28;20060;-81
2022/04/14 12:42:00;;;;;;;4.65;2.20;;;19.40;78.50;;;;;;5058453;28;20135;-80